sensor_id;sensor_type;location;lat;lon;timestamp;temperature;humidity
27741;DHT22;15134;48.768;9.184;2023-07-08T00:00:18;23.20;74.20
27741;DHT22;15134;48.768;9.184;2023-07-08T00:02:48;23.20;74.50
27741;DHT22;15134;48.768;9.184;2023-07-08T00:05:16;23.20;74.40
27741;DHT22;15134;48.768;9.184;2023-07-08T00:07:45;23.20;75.00
27741;DHT22;15134;48.768;9.184;2023-07-08T00:18:42;23.10;76.40
27741;DHT22;15134;48.768;9.184;2023-07-08T00:21:14;23.10;76.80
27741;DHT22;15134;48.768;9.184;2023-07-08T00:23:45;23.00;76.80
27741;DHT22;15134;48.768;9.184;2023-07-08T00:26:26;23.00;76.80
27741;DHT22;15134;48.768;9.184;2023-07-08T00:28:53;23.00;77.00
27741;DHT22;15134;48.768;9.184;2023-07-08T00:31:20;23.00;77.00
27741;DHT22;15134;48.768;9.184;2023-07-08T00:33:53;23.00;76.80
27741;DHT22;15134;48.768;9.184;2023-07-08T00:36:24;23.00;76.70
27741;DHT22;15134;48.768;9.184;2023-07-08T00:38:50;22.90;76.80
27741;DHT22;15134;48.768;9.184;2023-07-08T00:41:21;22.90;77.00
27741;DHT22;15134;48.768;9.184;2023-07-08T00:43:50;22.80;77.40
27741;DHT22;15134;48.768;9.184;2023-07-08T00:51:35;22.70;76.60
27741;DHT22;15134;48.768;9.184;2023-07-08T00:54:04;22.60;77.40
27741;DHT22;15134;48.768;9.184;2023-07-08T00:56:30;22.60;77.20
27741;DHT22;15134;48.768;9.184;2023-07-08T00:59:03;22.60;77.90
27741;DHT22;15134;48.768;9.184;2023-07-08T01:01:32;22.60;78.10
27741;DHT22;15134;48.768;9.184;2023-07-08T01:04:07;22.50;78.70
27741;DHT22;15134;48.768;9.184;2023-07-08T01:06:37;22.60;79.10
27741;DHT22;15134;48.768;9.184;2023-07-08T01:09:06;22.50;79.40
27741;DHT22;15134;48.768;9.184;2023-07-08T01:11:37;22.50;79.50
27741;DHT22;15134;48.768;9.184;2023-07-08T01:14:05;22.50;79.60
27741;DHT22;15134;48.768;9.184;2023-07-08T01:16:33;22.50;79.90
27741;DHT22;15134;48.768;9.184;2023-07-08T01:19:03;22.40;80.20
27741;DHT22;15134;48.768;9.184;2023-07-08T01:21:38;22.40;79.70
27741;DHT22;15134;48.768;9.184;2023-07-08T01:24:07;22.40;78.90
27741;DHT22;15134;48.768;9.184;2023-07-08T01:26:37;22.40;78.40
27741;DHT22;15134;48.768;9.184;2023-07-08T01:29:04;22.50;78.50
27741;DHT22;15134;48.768;9.184;2023-07-08T01:31:30;22.50;78.20
27741;DHT22;15134;48.768;9.184;2023-07-08T01:33:57;22.40;78.40
27741;DHT22;15134;48.768;9.184;2023-07-08T01:36:23;22.50;78.80
27741;DHT22;15134;48.768;9.184;2023-07-08T01:38:49;22.40;78.20
27741;DHT22;15134;48.768;9.184;2023-07-08T01:41:16;22.40;78.50
27741;DHT22;15134;48.768;9.184;2023-07-08T01:43:43;22.30;79.50
27741;DHT22;15134;48.768;9.184;2023-07-08T01:46:20;22.30;79.40
27741;DHT22;15134;48.768;9.184;2023-07-08T01:48:51;22.30;79.10
27741;DHT22;15134;48.768;9.184;2023-07-08T01:51:17;22.30;79.30
27741;DHT22;15134;48.768;9.184;2023-07-08T01:53:43;22.30;79.40
27741;DHT22;15134;48.768;9.184;2023-07-08T01:56:14;22.30;79.30
27741;DHT22;15134;48.768;9.184;2023-07-08T01:58:40;22.30;79.20
27741;DHT22;15134;48.768;9.184;2023-07-08T02:01:06;22.20;79.20
27741;DHT22;15134;48.768;9.184;2023-07-08T02:03:32;22.10;79.90
27741;DHT22;15134;48.768;9.184;2023-07-08T02:05:58;22.00;78.90
27741;DHT22;15134;48.768;9.184;2023-07-08T02:08:24;22.00;79.80
27741;DHT22;15134;48.768;9.184;2023-07-08T02:10:52;22.00;79.60
27741;DHT22;15134;48.768;9.184;2023-07-08T02:13:19;22.00;79.50
27741;DHT22;15134;48.768;9.184;2023-07-08T02:15:47;22.00;80.00
27741;DHT22;15134;48.768;9.184;2023-07-08T02:18:13;22.00;79.80
27741;DHT22;15134;48.768;9.184;2023-07-08T02:20:39;21.90;79.60
27741;DHT22;15134;48.768;9.184;2023-07-08T02:23:05;21.90;80.10
27741;DHT22;15134;48.768;9.184;2023-07-08T02:25:30;21.80;79.90
27741;DHT22;15134;48.768;9.184;2023-07-08T02:27:58;21.80;80.60
27741;DHT22;15134;48.768;9.184;2023-07-08T02:30:24;21.80;80.30
27741;DHT22;15134;48.768;9.184;2023-07-08T02:32:50;21.80;80.70
27741;DHT22;15134;48.768;9.184;2023-07-08T02:35:24;21.70;80.40
27741;DHT22;15134;48.768;9.184;2023-07-08T02:37:51;21.60;80.80
27741;DHT22;15134;48.768;9.184;2023-07-08T02:40:18;21.60;81.10
27741;DHT22;15134;48.768;9.184;2023-07-08T02:42:44;21.70;81.40
27741;DHT22;15134;48.768;9.184;2023-07-08T02:45:11;21.70;81.30
27741;DHT22;15134;48.768;9.184;2023-07-08T02:47:37;21.80;80.40
27741;DHT22;15134;48.768;9.184;2023-07-08T02:50:03;21.80;80.50
27741;DHT22;15134;48.768;9.184;2023-07-08T02:52:30;21.80;80.40
27741;DHT22;15134;48.768;9.184;2023-07-08T02:54:56;21.90;80.00
27741;DHT22;15134;48.768;9.184;2023-07-08T02:57:22;21.90;79.80
27741;DHT22;15134;48.768;9.184;2023-07-08T02:59:47;22.00;79.50
27741;DHT22;15134;48.768;9.184;2023-07-08T03:02:13;22.00;79.10
27741;DHT22;15134;48.768;9.184;2023-07-08T03:04:39;22.00;79.00
27741;DHT22;15134;48.768;9.184;2023-07-08T03:07:06;22.10;78.90
27741;DHT22;15134;48.768;9.184;2023-07-08T03:09:40;22.10;78.80
27741;DHT22;15134;48.768;9.184;2023-07-08T03:12:10;22.10;79.60
27741;DHT22;15134;48.768;9.184;2023-07-08T03:14:36;22.10;80.20
27741;DHT22;15134;48.768;9.184;2023-07-08T03:17:03;22.00;80.80
27741;DHT22;15134;48.768;9.184;2023-07-08T03:19:29;22.00;81.40
27741;DHT22;15134;48.768;9.184;2023-07-08T03:21:55;22.00;81.80
27741;DHT22;15134;48.768;9.184;2023-07-08T03:24:21;21.90;81.40
27741;DHT22;15134;48.768;9.184;2023-07-08T03:26:48;21.80;81.90
27741;DHT22;15134;48.768;9.184;2023-07-08T03:29:18;21.80;82.20
27741;DHT22;15134;48.768;9.184;2023-07-08T03:31:45;21.80;81.30
27741;DHT22;15134;48.768;9.184;2023-07-08T03:34:16;21.80;81.30
27741;DHT22;15134;48.768;9.184;2023-07-08T03:36:47;21.70;81.30
27741;DHT22;15134;48.768;9.184;2023-07-08T03:39:22;21.70;80.90
27741;DHT22;15134;48.768;9.184;2023-07-08T03:41:49;21.60;81.80
27741;DHT22;15134;48.768;9.184;2023-07-08T03:44:16;21.60;81.00
27741;DHT22;15134;48.768;9.184;2023-07-08T03:46:43;21.60;81.10
27741;DHT22;15134;48.768;9.184;2023-07-08T03:49:10;21.60;82.10
27741;DHT22;15134;48.768;9.184;2023-07-08T03:51:38;21.70;82.60
27741;DHT22;15134;48.768;9.184;2023-07-08T03:54:05;21.70;82.00
27741;DHT22;15134;48.768;9.184;2023-07-08T03:56:34;21.80;82.20
27741;DHT22;15134;48.768;9.184;2023-07-08T03:59:01;21.80;82.80
27741;DHT22;15134;48.768;9.184;2023-07-08T04:01:27;21.70;82.90
27741;DHT22;15134;48.768;9.184;2023-07-08T04:03:56;21.80;82.40
27741;DHT22;15134;48.768;9.184;2023-07-08T04:06:23;21.80;82.30
27741;DHT22;15134;48.768;9.184;2023-07-08T04:08:49;21.80;82.40
27741;DHT22;15134;48.768;9.184;2023-07-08T04:11:21;21.80;83.30
27741;DHT22;15134;48.768;9.184;2023-07-08T04:13:48;21.60;83.60
27741;DHT22;15134;48.768;9.184;2023-07-08T04:16:27;21.60;84.30
27741;DHT22;15134;48.768;9.184;2023-07-08T04:18:54;21.60;84.90
27741;DHT22;15134;48.768;9.184;2023-07-08T04:21:22;21.70;84.40
27741;DHT22;15134;48.768;9.184;2023-07-08T04:23:48;21.80;84.20
27741;DHT22;15134;48.768;9.184;2023-07-08T04:26:14;21.80;84.40
27741;DHT22;15134;48.768;9.184;2023-07-08T04:28:41;21.90;84.60
27741;DHT22;15134;48.768;9.184;2023-07-08T04:31:07;21.90;84.80
27741;DHT22;15134;48.768;9.184;2023-07-08T04:33:32;22.00;85.00
27741;DHT22;15134;48.768;9.184;2023-07-08T04:35:58;22.10;84.50
27741;DHT22;15134;48.768;9.184;2023-07-08T04:38:26;22.10;84.90
27741;DHT22;15134;48.768;9.184;2023-07-08T04:40:53;22.10;85.40
27741;DHT22;15134;48.768;9.184;2023-07-08T04:43:20;22.30;84.90
27741;DHT22;15134;48.768;9.184;2023-07-08T04:45:51;22.50;84.30
27741;DHT22;15134;48.768;9.184;2023-07-08T04:48:19;22.50;85.10
27741;DHT22;15134;48.768;9.184;2023-07-08T04:50:49;22.60;85.30
27741;DHT22;15134;48.768;9.184;2023-07-08T04:53:15;22.90;84.50
27741;DHT22;15134;48.768;9.184;2023-07-08T04:55:53;23.00;83.40
27741;DHT22;15134;48.768;9.184;2023-07-08T04:58:19;23.30;85.20
27741;DHT22;15134;48.768;9.184;2023-07-08T05:00:45;23.40;84.60
27741;DHT22;15134;48.768;9.184;2023-07-08T05:03:11;23.50;83.70
27741;DHT22;15134;48.768;9.184;2023-07-08T05:05:37;23.70;82.90
27741;DHT22;15134;48.768;9.184;2023-07-08T05:08:03;23.90;83.00
27741;DHT22;15134;48.768;9.184;2023-07-08T05:10:28;24.20;82.70
27741;DHT22;15134;48.768;9.184;2023-07-08T05:12:54;24.60;80.30
27741;DHT22;15134;48.768;9.184;2023-07-08T05:15:20;24.90;79.00
27741;DHT22;15134;48.768;9.184;2023-07-08T05:17:46;25.30;77.40
27741;DHT22;15134;48.768;9.184;2023-07-08T05:20:14;25.60;78.30
27741;DHT22;15134;48.768;9.184;2023-07-08T05:22:40;25.90;78.20
27741;DHT22;15134;48.768;9.184;2023-07-08T05:25:08;26.10;77.40
27741;DHT22;15134;48.768;9.184;2023-07-08T05:27:34;26.40;76.40
27741;DHT22;15134;48.768;9.184;2023-07-08T05:30:00;26.80;76.10
27741;DHT22;15134;48.768;9.184;2023-07-08T05:32:26;27.10;75.80
27741;DHT22;15134;48.768;9.184;2023-07-08T05:34:53;27.00;75.50
27741;DHT22;15134;48.768;9.184;2023-07-08T05:37:18;26.60;75.90
27741;DHT22;15134;48.768;9.184;2023-07-08T05:39:49;26.30;77.20
27741;DHT22;15134;48.768;9.184;2023-07-08T05:42:15;26.00;77.20
27741;DHT22;15134;48.768;9.184;2023-07-08T05:44:40;25.90;77.80
27741;DHT22;15134;48.768;9.184;2023-07-08T05:47:06;25.70;79.30
27741;DHT22;15134;48.768;9.184;2023-07-08T05:49:32;25.60;79.60
27741;DHT22;15134;48.768;9.184;2023-07-08T05:51:58;25.60;79.10
27741;DHT22;15134;48.768;9.184;2023-07-08T05:54:24;25.70;79.60
27741;DHT22;15134;48.768;9.184;2023-07-08T05:56:50;26.20;79.10
27741;DHT22;15134;48.768;9.184;2023-07-08T05:59:15;26.40;79.40
27741;DHT22;15134;48.768;9.184;2023-07-08T06:01:41;26.80;78.80
27741;DHT22;15134;48.768;9.184;2023-07-08T06:04:07;27.30;77.20
27741;DHT22;15134;48.768;9.184;2023-07-08T06:06:34;27.40;75.40
27741;DHT22;15134;48.768;9.184;2023-07-08T06:09:00;27.60;75.40
27741;DHT22;15134;48.768;9.184;2023-07-08T06:11:26;27.90;76.40
27741;DHT22;15134;48.768;9.184;2023-07-08T06:13:51;28.20;76.60
27741;DHT22;15134;48.768;9.184;2023-07-08T06:16:17;28.80;74.70
27741;DHT22;15134;48.768;9.184;2023-07-08T06:18:43;29.40;73.90
27741;DHT22;15134;48.768;9.184;2023-07-08T06:21:09;30.30;73.60
27741;DHT22;15134;48.768;9.184;2023-07-08T06:23:34;31.80;70.20
27741;DHT22;15134;48.768;9.184;2023-07-08T06:26:00;32.80;67.90
27741;DHT22;15134;48.768;9.184;2023-07-08T06:28:26;33.00;65.30
27741;DHT22;15134;48.768;9.184;2023-07-08T06:30:51;33.80;64.40
27741;DHT22;15134;48.768;9.184;2023-07-08T06:33:17;34.00;62.70
27741;DHT22;15134;48.768;9.184;2023-07-08T06:35:43;33.40;62.30
27741;DHT22;15134;48.768;9.184;2023-07-08T06:38:10;32.50;63.60
27741;DHT22;15134;48.768;9.184;2023-07-08T06:40:37;31.60;65.60
27741;DHT22;15134;48.768;9.184;2023-07-08T06:43:03;30.90;66.30
27741;DHT22;15134;48.768;9.184;2023-07-08T06:45:39;30.40;67.80
27741;DHT22;15134;48.768;9.184;2023-07-08T06:48:05;29.90;68.50
27741;DHT22;15134;48.768;9.184;2023-07-08T06:50:31;29.50;69.20
27741;DHT22;15134;48.768;9.184;2023-07-08T06:52:56;29.40;70.20
27741;DHT22;15134;48.768;9.184;2023-07-08T06:55:23;29.90;70.10
27741;DHT22;15134;48.768;9.184;2023-07-08T06:57:49;30.10;69.30
27741;DHT22;15134;48.768;9.184;2023-07-08T07:00:14;30.10;69.60
27741;DHT22;15134;48.768;9.184;2023-07-08T07:02:40;29.80;71.00
27741;DHT22;15134;48.768;9.184;2023-07-08T07:05:06;29.40;71.80
27741;DHT22;15134;48.768;9.184;2023-07-08T07:07:34;28.90;72.70
27741;DHT22;15134;48.768;9.184;2023-07-08T07:10:00;28.60;73.70
27741;DHT22;15134;48.768;9.184;2023-07-08T07:12:26;28.10;75.00
27741;DHT22;15134;48.768;9.184;2023-07-08T07:14:52;27.70;75.70
27741;DHT22;15134;48.768;9.184;2023-07-08T07:17:20;27.40;76.70
27741;DHT22;15134;48.768;9.184;2023-07-08T07:19:46;27.20;78.00
27741;DHT22;15134;48.768;9.184;2023-07-08T07:22:12;27.00;78.20
27741;DHT22;15134;48.768;9.184;2023-07-08T07:24:37;26.90;78.70
27741;DHT22;15134;48.768;9.184;2023-07-08T07:27:03;26.80;79.30
27741;DHT22;15134;48.768;9.184;2023-07-08T07:29:37;26.80;80.10
27741;DHT22;15134;48.768;9.184;2023-07-08T07:32:05;26.80;80.40
27741;DHT22;15134;48.768;9.184;2023-07-08T07:34:30;26.80;79.80
27741;DHT22;15134;48.768;9.184;2023-07-08T07:36:56;27.00;79.90
27741;DHT22;15134;48.768;9.184;2023-07-08T07:39:22;27.00;80.20
27741;DHT22;15134;48.768;9.184;2023-07-08T07:41:48;26.80;80.40
27741;DHT22;15134;48.768;9.184;2023-07-08T07:44:13;26.80;80.60
27741;DHT22;15134;48.768;9.184;2023-07-08T07:46:39;26.70;81.20
27741;DHT22;15134;48.768;9.184;2023-07-08T07:49:05;26.60;81.20
27741;DHT22;15134;48.768;9.184;2023-07-08T07:51:30;26.70;81.90
27741;DHT22;15134;48.768;9.184;2023-07-08T07:53:56;26.80;82.00
27741;DHT22;15134;48.768;9.184;2023-07-08T07:56:22;27.40;81.80
27741;DHT22;15134;48.768;9.184;2023-07-08T07:58:48;28.60;78.80
27741;DHT22;15134;48.768;9.184;2023-07-08T08:01:14;31.20;74.70
27741;DHT22;15134;48.768;9.184;2023-07-08T08:03:41;32.50;72.30
27741;DHT22;15134;48.768;9.184;2023-07-08T08:06:06;35.20;68.40
27741;DHT22;15134;48.768;9.184;2023-07-08T08:08:32;37.70;63.50
27741;DHT22;15134;48.768;9.184;2023-07-08T08:10:58;39.00;60.90
27741;DHT22;15134;48.768;9.184;2023-07-08T08:13:24;40.10;58.70
27741;DHT22;15134;48.768;9.184;2023-07-08T08:15:56;41.00;57.70
27741;DHT22;15134;48.768;9.184;2023-07-08T08:18:21;42.00;56.20
27741;DHT22;15134;48.768;9.184;2023-07-08T08:20:50;43.30;54.30
27741;DHT22;15134;48.768;9.184;2023-07-08T08:23:16;41.90;54.30
27741;DHT22;15134;48.768;9.184;2023-07-08T08:25:42;40.40;56.30
27741;DHT22;15134;48.768;9.184;2023-07-08T08:28:08;39.80;56.90
27741;DHT22;15134;48.768;9.184;2023-07-08T08:30:34;39.40;57.30
27741;DHT22;15134;48.768;9.184;2023-07-08T08:33:00;39.50;57.30
27741;DHT22;15134;48.768;9.184;2023-07-08T08:35:27;40.80;56.90
27741;DHT22;15134;48.768;9.184;2023-07-08T08:37:52;42.20;55.40
27741;DHT22;15134;48.768;9.184;2023-07-08T08:40:21;43.30;54.10
27741;DHT22;15134;48.768;9.184;2023-07-08T08:43:02;44.40;53.00
27741;DHT22;15134;48.768;9.184;2023-07-08T08:45:34;45.70;51.10
27741;DHT22;15134;48.768;9.184;2023-07-08T08:48:04;45.70;50.20
27741;DHT22;15134;48.768;9.184;2023-07-08T08:50:58;43.80;50.80
27741;DHT22;15134;48.768;9.184;2023-07-08T08:53:27;42.10;52.30
27741;DHT22;15134;48.768;9.184;2023-07-08T08:56:00;40.30;54.20
27741;DHT22;15134;48.768;9.184;2023-07-08T08:58:39;39.70;55.50
27741;DHT22;15134;48.768;9.184;2023-07-08T09:01:15;38.70;56.00
27741;DHT22;15134;48.768;9.184;2023-07-08T09:06:31;39.70;56.00
27741;DHT22;15134;48.768;9.184;2023-07-08T09:09:09;41.10;54.60
27741;DHT22;15134;48.768;9.184;2023-07-08T09:11:57;42.40;52.70
27741;DHT22;15134;48.768;9.184;2023-07-08T09:14:28;43.80;52.40
27741;DHT22;15134;48.768;9.184;2023-07-08T09:17:24;45.30;50.40
27741;DHT22;15134;48.768;9.184;2023-07-08T09:23:23;44.70;49.60
27741;DHT22;15134;48.768;9.184;2023-07-08T09:26:11;43.40;50.50
27741;DHT22;15134;48.768;9.184;2023-07-08T09:28:41;43.30;51.20
27741;DHT22;15134;48.768;9.184;2023-07-08T09:31:09;43.20;51.40
27741;DHT22;15134;48.768;9.184;2023-07-08T09:33:39;43.70;51.80
27741;DHT22;15134;48.768;9.184;2023-07-08T09:36:21;44.40;50.60
27741;DHT22;15134;48.768;9.184;2023-07-08T09:38:49;44.70;49.90
27741;DHT22;15134;48.768;9.184;2023-07-08T09:41:34;45.00;50.20
27741;DHT22;15134;48.768;9.184;2023-07-08T09:44:25;44.50;50.10
27741;DHT22;15134;48.768;9.184;2023-07-08T09:46:57;44.20;49.90
27741;DHT22;15134;48.768;9.184;2023-07-08T09:49:32;44.60;50.20
27741;DHT22;15134;48.768;9.184;2023-07-08T09:51:58;44.40;50.10
27741;DHT22;15134;48.768;9.184;2023-07-08T09:54:25;44.10;50.30
27741;DHT22;15134;48.768;9.184;2023-07-08T09:57:00;43.40;50.70
27741;DHT22;15134;48.768;9.184;2023-07-08T09:59:32;41.70;51.20
27741;DHT22;15134;48.768;9.184;2023-07-08T10:02:15;40.40;52.90
27741;DHT22;15134;48.768;9.184;2023-07-08T10:04:46;39.80;53.40
27741;DHT22;15134;48.768;9.184;2023-07-08T10:07:16;39.00;54.10
27741;DHT22;15134;48.768;9.184;2023-07-08T10:09:42;38.10;56.10
27741;DHT22;15134;48.768;9.184;2023-07-08T10:12:11;37.40;57.20
27741;DHT22;15134;48.768;9.184;2023-07-08T10:14:46;37.00;57.10
27741;DHT22;15134;48.768;9.184;2023-07-08T10:17:16;36.40;58.60
27741;DHT22;15134;48.768;9.184;2023-07-08T10:19:42;35.80;58.30
27741;DHT22;15134;48.768;9.184;2023-07-08T10:22:26;35.00;59.50
27741;DHT22;15134;48.768;9.184;2023-07-08T10:28:39;33.60;63.40
27741;DHT22;15134;48.768;9.184;2023-07-08T10:30:58;33.30;64.60
27741;DHT22;15134;48.768;9.184;2023-07-08T10:47:49;32.80;66.90
27741;DHT22;15134;48.768;9.184;2023-07-08T10:50:43;32.60;66.90
27741;DHT22;15134;48.768;9.184;2023-07-08T10:56:23;31.80;68.00
27741;DHT22;15134;48.768;9.184;2023-07-08T10:59:15;31.40;68.50
27741;DHT22;15134;48.768;9.184;2023-07-08T11:07:34;31.10;69.70
27741;DHT22;15134;48.768;9.184;2023-07-08T11:12:47;30.90;70.20
27741;DHT22;15134;48.768;9.184;2023-07-08T11:15:20;30.80;70.50
27741;DHT22;15134;48.768;9.184;2023-07-08T11:18:06;30.80;70.30
27741;DHT22;15134;48.768;9.184;2023-07-08T11:20:38;30.80;70.50
27741;DHT22;15134;48.768;9.184;2023-07-08T11:26:07;30.80;70.40
27741;DHT22;15134;48.768;9.184;2023-07-08T11:28:35;30.80;70.00
27741;DHT22;15134;48.768;9.184;2023-07-08T11:31:02;30.80;70.20
27741;DHT22;15134;48.768;9.184;2023-07-08T11:33:31;30.80;70.80
27741;DHT22;15134;48.768;9.184;2023-07-08T11:35:57;30.80;70.60
27741;DHT22;15134;48.768;9.184;2023-07-08T11:38:25;30.80;70.30
27741;DHT22;15134;48.768;9.184;2023-07-08T11:43:28;30.90;70.00
27741;DHT22;15134;48.768;9.184;2023-07-08T11:46:04;30.90;69.90
27741;DHT22;15134;48.768;9.184;2023-07-08T11:48:33;30.80;70.50
27741;DHT22;15134;48.768;9.184;2023-07-08T11:51:06;30.80;70.70
27741;DHT22;15134;48.768;9.184;2023-07-08T11:53:38;30.70;70.00
27741;DHT22;15134;48.768;9.184;2023-07-08T12:01:28;30.60;71.50
27741;DHT22;15134;48.768;9.184;2023-07-08T12:09:36;30.50;71.60
27741;DHT22;15134;48.768;9.184;2023-07-08T12:12:02;30.50;71.80
27741;DHT22;15134;48.768;9.184;2023-07-08T12:14:29;30.50;71.40
27741;DHT22;15134;48.768;9.184;2023-07-08T12:16:56;30.60;72.00
27741;DHT22;15134;48.768;9.184;2023-07-08T12:19:23;30.60;71.10
27741;DHT22;15134;48.768;9.184;2023-07-08T12:21:51;30.50;70.60
27741;DHT22;15134;48.768;9.184;2023-07-08T12:24:18;30.40;71.10
27741;DHT22;15134;48.768;9.184;2023-07-08T12:26:44;30.40;70.70
27741;DHT22;15134;48.768;9.184;2023-07-08T12:29:12;30.40;70.60
27741;DHT22;15134;48.768;9.184;2023-07-08T12:31:42;30.30;70.90
27741;DHT22;15134;48.768;9.184;2023-07-08T12:34:14;30.30;70.80
27741;DHT22;15134;48.768;9.184;2023-07-08T12:36:43;30.30;71.10
27741;DHT22;15134;48.768;9.184;2023-07-08T12:39:16;30.30;71.60
27741;DHT22;15134;48.768;9.184;2023-07-08T12:41:44;30.40;70.70
27741;DHT22;15134;48.768;9.184;2023-07-08T12:44:18;30.30;70.30
27741;DHT22;15134;48.768;9.184;2023-07-08T12:46:46;30.30;69.80
27741;DHT22;15134;48.768;9.184;2023-07-08T12:49:13;30.30;69.90
27741;DHT22;15134;48.768;9.184;2023-07-08T12:51:43;30.20;70.30
27741;DHT22;15134;48.768;9.184;2023-07-08T12:54:10;30.20;71.00
27741;DHT22;15134;48.768;9.184;2023-07-08T12:56:37;30.20;71.00
27741;DHT22;15134;48.768;9.184;2023-07-08T12:59:04;30.20;71.00
27741;DHT22;15134;48.768;9.184;2023-07-08T13:01:33;30.20;70.40
27741;DHT22;15134;48.768;9.184;2023-07-08T13:04:03;30.20;70.30
27741;DHT22;15134;48.768;9.184;2023-07-08T13:06:31;30.20;70.50
27741;DHT22;15134;48.768;9.184;2023-07-08T13:09:23;30.20;70.70
27741;DHT22;15134;48.768;9.184;2023-07-08T13:11:52;30.20;70.20
27741;DHT22;15134;48.768;9.184;2023-07-08T13:14:22;30.20;69.90
27741;DHT22;15134;48.768;9.184;2023-07-08T13:16:49;30.20;69.10
27741;DHT22;15134;48.768;9.184;2023-07-08T13:19:15;30.20;70.10
27741;DHT22;15134;48.768;9.184;2023-07-08T13:21:41;30.20;70.50
27741;DHT22;15134;48.768;9.184;2023-07-08T13:24:10;30.30;70.60
27741;DHT22;15134;48.768;9.184;2023-07-08T13:26:39;30.30;70.20
27741;DHT22;15134;48.768;9.184;2023-07-08T13:29:11;30.40;69.90
27741;DHT22;15134;48.768;9.184;2023-07-08T13:31:39;30.40;69.90
27741;DHT22;15134;48.768;9.184;2023-07-08T13:34:18;30.40;69.90
27741;DHT22;15134;48.768;9.184;2023-07-08T13:36:49;30.40;68.90
27741;DHT22;15134;48.768;9.184;2023-07-08T13:39:27;30.50;68.60
27741;DHT22;15134;48.768;9.184;2023-07-08T13:41:55;30.50;67.90
27741;DHT22;15134;48.768;9.184;2023-07-08T13:44:21;30.60;67.30
27741;DHT22;15134;48.768;9.184;2023-07-08T13:49:29;30.50;66.80
27741;DHT22;15134;48.768;9.184;2023-07-08T13:52:16;30.50;66.60
27741;DHT22;15134;48.768;9.184;2023-07-08T13:55:16;30.60;67.00
27741;DHT22;15134;48.768;9.184;2023-07-08T13:57:43;30.60;66.30
27741;DHT22;15134;48.768;9.184;2023-07-08T14:00:09;30.70;66.40
27741;DHT22;15134;48.768;9.184;2023-07-08T14:02:41;30.60;66.10
27741;DHT22;15134;48.768;9.184;2023-07-08T14:05:12;30.60;66.80
27741;DHT22;15134;48.768;9.184;2023-07-08T14:07:46;30.60;67.30
27741;DHT22;15134;48.768;9.184;2023-07-08T14:10:13;30.50;67.20
27741;DHT22;15134;48.768;9.184;2023-07-08T14:12:38;30.40;67.60
27741;DHT22;15134;48.768;9.184;2023-07-08T14:15:05;30.30;67.70
27741;DHT22;15134;48.768;9.184;2023-07-08T14:17:31;30.30;68.40
27741;DHT22;15134;48.768;9.184;2023-07-08T14:19:57;30.20;69.50
27741;DHT22;15134;48.768;9.184;2023-07-08T14:22:26;30.10;69.70
27741;DHT22;15134;48.768;9.184;2023-07-08T14:24:52;30.20;70.10
27741;DHT22;15134;48.768;9.184;2023-07-08T14:27:18;30.20;70.00
27741;DHT22;15134;48.768;9.184;2023-07-08T14:29:50;30.20;71.10
27741;DHT22;15134;48.768;9.184;2023-07-08T14:32:18;30.30;69.60
27741;DHT22;15134;48.768;9.184;2023-07-08T14:34:53;30.30;69.20
27741;DHT22;15134;48.768;9.184;2023-07-08T14:37:20;30.30;68.20
27741;DHT22;15134;48.768;9.184;2023-07-08T14:39:46;30.30;69.30
27741;DHT22;15134;48.768;9.184;2023-07-08T14:42:13;30.30;69.70
27741;DHT22;15134;48.768;9.184;2023-07-08T14:44:41;30.40;69.60
27741;DHT22;15134;48.768;9.184;2023-07-08T14:47:12;30.40;69.00
27741;DHT22;15134;48.768;9.184;2023-07-08T14:49:38;30.50;69.40
27741;DHT22;15134;48.768;9.184;2023-07-08T14:52:04;30.70;69.60
27741;DHT22;15134;48.768;9.184;2023-07-08T14:54:30;30.80;68.80
27741;DHT22;15134;48.768;9.184;2023-07-08T14:56:56;30.90;68.70
27741;DHT22;15134;48.768;9.184;2023-07-08T14:59:24;30.90;68.40
27741;DHT22;15134;48.768;9.184;2023-07-08T15:01:52;30.90;67.90
27741;DHT22;15134;48.768;9.184;2023-07-08T15:04:19;30.90;67.90
27741;DHT22;15134;48.768;9.184;2023-07-08T15:06:46;31.00;67.80
27741;DHT22;15134;48.768;9.184;2023-07-08T15:09:12;31.00;67.60
27741;DHT22;15134;48.768;9.184;2023-07-08T15:11:40;30.90;67.50
27741;DHT22;15134;48.768;9.184;2023-07-08T15:14:20;30.90;67.60
27741;DHT22;15134;48.768;9.184;2023-07-08T15:16:46;30.90;68.00
27741;DHT22;15134;48.768;9.184;2023-07-08T15:19:12;30.90;67.80
27741;DHT22;15134;48.768;9.184;2023-07-08T15:21:40;30.90;67.90
27741;DHT22;15134;48.768;9.184;2023-07-08T15:24:11;30.90;68.10
27741;DHT22;15134;48.768;9.184;2023-07-08T15:26:46;30.90;68.50
27741;DHT22;15134;48.768;9.184;2023-07-08T15:29:19;30.90;68.20
27741;DHT22;15134;48.768;9.184;2023-07-08T15:31:46;30.90;68.80
27741;DHT22;15134;48.768;9.184;2023-07-08T15:34:22;30.90;69.10
27741;DHT22;15134;48.768;9.184;2023-07-08T15:36:48;31.00;68.90
27741;DHT22;15134;48.768;9.184;2023-07-08T15:39:15;31.00;68.40
27741;DHT22;15134;48.768;9.184;2023-07-08T15:41:41;31.00;67.60
27741;DHT22;15134;48.768;9.184;2023-07-08T15:44:13;31.10;67.50
27741;DHT22;15134;48.768;9.184;2023-07-08T15:46:44;31.20;67.30
27741;DHT22;15134;48.768;9.184;2023-07-08T15:49:21;31.20;66.80
27741;DHT22;15134;48.768;9.184;2023-07-08T15:51:52;31.10;67.00
27741;DHT22;15134;48.768;9.184;2023-07-08T15:54:19;31.10;67.10
27741;DHT22;15134;48.768;9.184;2023-07-08T15:56:46;31.00;66.90
27741;DHT22;15134;48.768;9.184;2023-07-08T15:59:16;30.90;67.70
27741;DHT22;15134;48.768;9.184;2023-07-08T16:01:43;30.90;68.00
27741;DHT22;15134;48.768;9.184;2023-07-08T16:04:23;30.80;67.60
27741;DHT22;15134;48.768;9.184;2023-07-08T16:06:50;30.80;68.70
27741;DHT22;15134;48.768;9.184;2023-07-08T16:09:16;30.80;69.40
27741;DHT22;15134;48.768;9.184;2023-07-08T16:11:42;30.80;69.60
27741;DHT22;15134;48.768;9.184;2023-07-08T16:14:13;30.70;69.00
27741;DHT22;15134;48.768;9.184;2023-07-08T16:16:39;30.70;69.30
27741;DHT22;15134;48.768;9.184;2023-07-08T16:19:07;30.70;69.40
27741;DHT22;15134;48.768;9.184;2023-07-08T16:21:32;30.70;69.20
27741;DHT22;15134;48.768;9.184;2023-07-08T16:23:58;30.70;68.70
27741;DHT22;15134;48.768;9.184;2023-07-08T16:26:24;30.70;68.80
27741;DHT22;15134;48.768;9.184;2023-07-08T16:28:50;30.70;68.60
27741;DHT22;15134;48.768;9.184;2023-07-08T16:31:20;30.60;68.50
27741;DHT22;15134;48.768;9.184;2023-07-08T16:33:47;30.70;69.00
27741;DHT22;15134;48.768;9.184;2023-07-08T16:36:16;30.60;68.90
27741;DHT22;15134;48.768;9.184;2023-07-08T16:38:42;30.60;68.90
27741;DHT22;15134;48.768;9.184;2023-07-08T16:41:16;30.70;68.50
27741;DHT22;15134;48.768;9.184;2023-07-08T16:43:43;30.70;68.30
27741;DHT22;15134;48.768;9.184;2023-07-08T16:46:10;30.70;68.00
27741;DHT22;15134;48.768;9.184;2023-07-08T16:48:36;30.70;68.30